createdAt,value
2019-04-04T00:00:56.163Z,0.00
2019-04-04T00:01:56.189Z,0.00
2019-04-04T00:02:56.219Z,0.00
2019-04-04T00:03:56.247Z,0.00
2019-04-04T00:04:57.772Z,0.00
2019-04-04T00:05:56.746Z,0.00
2019-04-04T00:06:58.196Z,0.00
2019-04-04T00:07:56.352Z,0.00
2019-04-04T00:08:56.380Z,0.00
2019-04-04T00:09:56.407Z,0.00
2019-04-04T00:10:56.437Z,0.00
2019-04-04T00:11:56.461Z,0.00
2019-04-04T00:12:56.489Z,0.00
2019-04-04T00:13:56.516Z,0.00
2019-04-04T00:14:56.543Z,0.00
2019-04-04T00:15:56.568Z,0.00
2019-04-04T00:16:56.597Z,0.00
2019-04-04T00:17:56.952Z,0.00
2019-04-04T00:18:58.376Z,0.00
2019-04-04T00:19:56.678Z,0.00
2019-04-04T00:20:56.704Z,0.00
2019-04-04T00:21:56.732Z,0.00
2019-04-04T00:22:56.759Z,0.00
2019-04-04T00:23:56.786Z,0.00
2019-04-04T00:24:56.816Z,0.00
2019-04-04T00:25:56.843Z,0.00
2019-04-04T00:26:56.869Z,0.00
2019-04-04T00:27:56.894Z,0.00
2019-04-04T00:28:56.922Z,0.00
2019-04-04T00:29:56.949Z,0.00
2019-04-04T00:30:56.976Z,0.00
2019-04-04T00:31:57.002Z,0.00
2019-04-04T00:32:57.030Z,0.00
2019-04-04T00:33:57.057Z,0.00
2019-04-04T00:34:57.875Z,0.00
2019-04-04T00:35:57.111Z,0.00
2019-04-04T00:36:57.138Z,0.00
2019-04-04T00:37:57.170Z,0.00
2019-04-04T00:38:57.195Z,0.00
2019-04-04T00:39:57.220Z,0.00
2019-04-04T00:40:57.247Z,0.00
2019-04-04T00:41:57.275Z,0.00
2019-04-04T00:42:57.352Z,0.00
2019-04-04T00:43:57.330Z,0.00
2019-04-04T00:44:57.356Z,0.00
2019-04-04T00:46:00.451Z,0.00
2019-04-04T00:46:57.415Z,0.00
2019-04-04T00:47:57.437Z,0.00
2019-04-04T00:48:57.464Z,0.00
2019-04-04T00:49:57.492Z,0.00
2019-04-04T00:50:57.522Z,0.00
2019-04-04T00:51:57.550Z,0.00
2019-04-04T00:52:57.573Z,0.00
2019-04-04T00:53:57.599Z,0.00
2019-04-04T00:54:57.627Z,0.00
2019-04-04T00:55:57.653Z,0.00
2019-04-04T00:56:57.701Z,0.00
2019-04-04T00:57:57.710Z,0.00
2019-04-04T00:58:57.735Z,0.00
2019-04-04T00:59:57.763Z,0.00
2019-04-04T01:00:57.814Z,0.00
2019-04-04T01:01:57.818Z,0.00
2019-04-04T01:02:58.598Z,0.00
2019-04-04T01:04:00.330Z,0.00
2019-04-04T01:04:57.898Z,0.00
2019-04-04T01:05:57.925Z,0.00
2019-04-04T01:06:57.952Z,0.00
2019-04-04T01:07:57.978Z,0.00
2019-04-04T01:08:58.029Z,0.00
2019-04-04T01:09:58.033Z,0.00
2019-04-04T01:10:58.060Z,0.00
2019-04-04T01:11:58.087Z,0.00
2019-04-04T01:12:58.113Z,0.00
2019-04-04T01:13:58.318Z,0.00
2019-04-04T01:15:00.159Z,0.00
2019-04-04T01:15:58.195Z,0.00
2019-04-04T01:16:58.222Z,0.00
2019-04-04T01:17:58.249Z,0.00
2019-04-04T01:18:58.277Z,0.00
2019-04-04T01:19:58.303Z,0.00
2019-04-04T01:20:58.381Z,0.00
2019-04-04T01:21:58.357Z,0.00
2019-04-04T01:22:58.385Z,0.00
2019-04-04T01:23:59.004Z,0.00
2019-04-04T01:24:59.011Z,0.00
2019-04-04T01:25:58.466Z,0.00
2019-04-04T01:26:58.493Z,0.00
2019-04-04T01:27:58.519Z,0.00
2019-04-04T01:28:58.545Z,0.00
2019-04-04T01:29:58.574Z,0.00
2019-04-04T01:30:58.601Z,0.00
2019-04-04T01:31:58.653Z,0.00
2019-04-04T01:32:58.656Z,0.00
2019-04-04T01:33:58.683Z,0.00
2019-04-04T01:34:58.712Z,0.00
2019-04-04T01:35:58.737Z,0.00
2019-04-04T01:36:58.764Z,0.00
2019-04-04T01:37:58.885Z,0.00
2019-04-04T01:39:00.149Z,0.00
2019-04-04T01:39:59.949Z,0.00
2019-04-04T01:40:58.873Z,0.00
2019-04-04T01:41:58.903Z,0.00
2019-04-04T01:42:58.927Z,0.00
2019-04-04T01:44:04.768Z,0.00
2019-04-04T01:44:58.981Z,0.00
2019-04-04T01:45:59.009Z,0.00
2019-04-04T01:46:59.035Z,0.00
2019-04-04T01:47:59.061Z,0.00
2019-04-04T01:48:59.090Z,0.00
2019-04-04T01:49:59.138Z,0.00
2019-04-04T01:50:59.168Z,0.00
2019-04-04T01:51:59.171Z,0.00
2019-04-04T01:52:59.922Z,0.00
2019-04-04T01:54:00.977Z,0.00
2019-04-04T01:55:03.015Z,0.00
2019-04-04T01:55:59.303Z,0.00
2019-04-04T01:56:59.308Z,0.00
2019-04-04T01:57:59.333Z,0.00
2019-04-04T01:58:59.384Z,0.00
2019-04-04T01:59:59.417Z,0.00
2019-04-04T02:00:59.414Z,0.00
2019-04-04T02:01:59.463Z,0.00
2019-04-04T02:02:59.493Z,0.00
2019-04-04T02:03:59.722Z,0.00
2019-04-04T02:04:59.545Z,0.00
2019-04-04T02:05:59.598Z,0.00
2019-04-04T02:06:59.765Z,0.00
2019-04-04T02:08:00.937Z,0.00
2019-04-04T02:09:02.530Z,0.00
2019-04-04T02:09:59.680Z,0.00
2019-04-04T02:10:59.937Z,0.00
2019-04-04T02:11:59.715Z,0.00
2019-04-04T02:13:59.792Z,0.00
2019-04-04T02:14:59.821Z,0.00
2019-04-04T02:15:59.847Z,0.00
2019-04-04T02:17:00.075Z,0.00
2019-04-04T02:17:59.902Z,0.00
2019-04-04T02:18:59.904Z,0.00
2019-04-04T02:19:59.930Z,0.00
2019-04-04T02:20:59.957Z,0.00
2019-04-04T02:22:00.382Z,0.00
2019-04-04T02:23:01.495Z,0.00
2019-04-04T02:24:01.621Z,0.00
2019-04-04T02:25:02.811Z,0.00
2019-04-04T02:26:00.097Z,0.00
2019-04-04T02:27:00.121Z,0.00
2019-04-04T02:28:00.146Z,0.00
2019-04-04T02:29:00.174Z,0.00
2019-04-04T02:30:00.204Z,0.00
2019-04-04T02:31:00.229Z,0.00
2019-04-04T02:32:00.255Z,0.00
2019-04-04T02:33:00.653Z,0.00
2019-04-04T02:34:04.947Z,0.00
2019-04-04T02:35:00.350Z,0.00
2019-04-04T02:36:00.365Z,0.00
2019-04-04T02:37:00.392Z,0.00
2019-04-04T02:38:00.418Z,0.00
2019-04-04T02:39:00.779Z,0.00
2019-04-04T02:40:00.476Z,0.00
2019-04-04T02:41:00.500Z,0.00
2019-04-04T02:42:00.537Z,0.00
2019-04-04T02:43:00.577Z,0.00
2019-04-04T02:44:00.797Z,0.00
2019-04-04T02:45:05.084Z,0.00
2019-04-04T02:46:00.635Z,0.00
2019-04-04T02:47:00.663Z,0.00
2019-04-04T02:48:00.690Z,0.00
2019-04-04T02:49:00.717Z,0.00
2019-04-04T02:50:02.029Z,0.00
2019-04-04T02:51:00.784Z,0.00
2019-04-04T02:52:00.802Z,0.00
2019-04-04T02:53:00.839Z,0.00
2019-04-04T02:54:00.853Z,0.00
2019-04-04T02:55:00.919Z,0.00
2019-04-04T02:56:03.248Z,0.00
2019-04-04T02:57:00.934Z,0.00
2019-04-04T02:58:00.960Z,0.00
2019-04-04T02:59:01.004Z,0.00
2019-04-04T03:00:01.015Z,0.00
2019-04-04T03:01:01.043Z,0.00
2019-04-04T03:02:04.905Z,0.00
2019-04-04T03:03:01.099Z,0.00
2019-04-04T03:04:01.128Z,0.00
2019-04-04T03:05:01.151Z,0.00
2019-04-04T03:06:01.179Z,0.00
2019-04-04T03:07:01.205Z,0.00
2019-04-04T03:08:04.151Z,0.00
2019-04-04T03:09:01.262Z,0.00
2019-04-04T03:10:01.319Z,0.00
2019-04-04T03:11:01.317Z,0.00
2019-04-04T03:12:01.343Z,0.00
2019-04-04T03:13:01.367Z,0.00
2019-04-04T03:14:03.841Z,0.00
2019-04-04T03:15:01.439Z,0.00
2019-04-04T03:16:01.454Z,0.00
2019-04-04T03:17:01.475Z,0.00
2019-04-04T03:18:04.107Z,0.00
2019-04-04T03:19:01.529Z,0.00
2019-04-04T03:20:01.563Z,0.00
2019-04-04T03:21:01.592Z,0.00
2019-04-04T03:22:01.617Z,0.00
2019-04-04T03:23:01.696Z,0.00
2019-04-04T03:24:05.953Z,0.00
2019-04-04T03:25:01.695Z,0.00
2019-04-04T03:26:01.721Z,0.00
2019-04-04T03:27:01.751Z,0.00
2019-04-04T03:28:01.774Z,0.00
2019-04-04T03:29:04.422Z,0.00
2019-04-04T03:30:01.945Z,0.00
2019-04-04T03:31:03.551Z,0.00
2019-04-04T03:32:01.896Z,0.00
2019-04-04T03:33:01.936Z,0.00
2019-04-04T03:34:08.713Z,0.00
2019-04-04T03:35:02.130Z,0.00
2019-04-04T03:36:01.992Z,0.00
2019-04-04T03:37:05.919Z,0.00
2019-04-04T03:38:02.046Z,0.00
2019-04-04T03:39:02.075Z,0.00
2019-04-04T03:40:02.102Z,0.00
2019-04-04T03:41:02.137Z,0.00
2019-04-04T03:42:02.155Z,0.00
2019-04-04T03:43:02.184Z,0.00
2019-04-04T03:44:02.209Z,0.00
2019-04-04T03:45:02.235Z,0.00
2019-04-04T03:46:02.265Z,0.00
2019-04-04T03:47:02.291Z,0.00
2019-04-04T03:48:02.317Z,0.00
2019-04-04T03:49:02.345Z,0.00
2019-04-04T03:50:02.371Z,0.00
2019-04-04T03:51:04.760Z,0.00
2019-04-04T03:52:02.425Z,0.00
2019-04-04T03:53:02.465Z,0.00
2019-04-04T03:54:02.480Z,0.00
2019-04-04T03:55:02.509Z,0.00
2019-04-04T03:56:02.535Z,0.00
2019-04-04T03:57:02.563Z,0.00
2019-04-04T03:58:02.590Z,0.00
2019-04-04T03:59:02.617Z,0.00
2019-04-04T04:00:05.832Z,0.00
2019-04-04T04:01:02.681Z,0.00
2019-04-04T04:02:02.707Z,0.00
2019-04-04T04:03:02.725Z,0.00
2019-04-04T04:04:02.760Z,0.00
2019-04-04T04:05:02.780Z,0.00
2019-04-04T04:06:02.809Z,0.00
2019-04-04T04:07:02.833Z,0.00
2019-04-04T04:08:02.860Z,0.00
2019-04-04T04:09:02.887Z,0.00
2019-04-04T04:10:02.915Z,0.00
2019-04-04T04:11:05.768Z,0.00
2019-04-04T04:12:02.986Z,0.00
2019-04-04T04:13:03.002Z,0.00
2019-04-04T04:14:03.032Z,0.00
2019-04-04T04:15:03.059Z,0.00
2019-04-04T04:16:03.962Z,0.00
2019-04-04T04:17:03.112Z,0.00
2019-04-04T04:18:03.148Z,0.00
2019-04-04T04:19:03.160Z,0.00
2019-04-04T04:20:04.237Z,0.00
2019-04-04T04:21:03.213Z,0.00
2019-04-04T04:22:03.241Z,0.00
2019-04-04T04:23:03.272Z,0.00
2019-04-04T04:24:03.296Z,0.00
2019-04-04T04:25:03.767Z,0.00
2019-04-04T04:26:08.311Z,0.00
2019-04-04T04:27:03.376Z,0.00
2019-04-04T04:28:03.514Z,0.00
2019-04-04T04:29:03.455Z,0.00
2019-04-04T04:30:07.216Z,0.00
2019-04-04T04:31:03.488Z,0.00
2019-04-04T04:32:03.515Z,0.00
2019-04-04T04:33:03.538Z,0.00
2019-04-04T04:34:03.568Z,0.00
2019-04-04T04:35:07.573Z,0.00
2019-04-04T04:36:03.625Z,0.00
2019-04-04T04:37:03.650Z,0.00
2019-04-04T04:38:03.673Z,0.00
2019-04-04T04:39:03.716Z,0.00
2019-04-04T04:40:03.730Z,0.00
2019-04-04T04:41:03.755Z,0.00
2019-04-04T04:42:03.784Z,0.00
2019-04-04T04:43:03.811Z,0.00
2019-04-04T04:44:05.601Z,4.00
2019-04-04T04:45:03.865Z,4.00
2019-04-04T04:46:03.914Z,0.00
2019-04-04T04:47:03.924Z,4.00
2019-04-04T04:48:03.943Z,4.00
2019-04-04T04:49:04.294Z,8.00
2019-04-04T04:50:04.003Z,4.00
2019-04-04T04:51:04.028Z,4.00
2019-04-04T04:52:04.060Z,4.00
2019-04-04T04:53:04.080Z,8.00
2019-04-04T04:54:04.108Z,8.00
2019-04-04T04:55:04.134Z,8.00
2019-04-04T04:56:04.165Z,12.00
2019-04-04T04:57:05.093Z,12.00
2019-04-04T04:58:04.216Z,12.00
2019-04-04T04:59:04.242Z,16.00
2019-04-04T05:00:04.269Z,20.00
2019-04-04T05:01:04.295Z,24.00
2019-04-04T05:02:04.324Z,28.00
2019-04-04T05:03:04.350Z,28.00
2019-04-04T05:04:04.376Z,32.00
2019-04-04T05:05:04.404Z,36.00
2019-04-04T05:06:04.429Z,36.00
2019-04-04T05:07:07.079Z,40.00
2019-04-04T05:08:04.587Z,44.00
2019-04-04T05:09:04.512Z,48.00
2019-04-04T05:10:04.539Z,56.00
2019-04-04T05:11:04.566Z,60.00
2019-04-04T05:12:04.592Z,64.00
2019-04-04T05:13:04.619Z,68.00
2019-04-04T05:14:04.645Z,76.00
2019-04-04T05:15:04.673Z,76.00
2019-04-04T05:16:08.616Z,84.00
2019-04-04T05:17:04.734Z,88.00
2019-04-04T05:18:04.757Z,96.00
2019-04-04T05:19:04.783Z,100.00
2019-04-04T05:20:04.809Z,108.00
2019-04-04T05:21:04.839Z,116.00
2019-04-04T05:22:04.863Z,124.00
2019-04-04T05:23:04.911Z,136.00
2019-04-04T05:24:04.915Z,152.00
2019-04-04T05:25:08.321Z,168.00
2019-04-04T05:26:04.991Z,184.00
2019-04-04T05:27:06.011Z,200.00
2019-04-04T05:28:06.338Z,224.00
2019-04-04T05:29:05.066Z,244.00
2019-04-04T05:30:08.155Z,260.00
2019-04-04T05:31:05.107Z,276.00
2019-04-04T05:32:05.129Z,280.00
2019-04-04T05:33:05.158Z,288.00
2019-04-04T05:34:05.184Z,284.00
2019-04-04T05:35:05.212Z,276.00
2019-04-04T05:36:05.968Z,272.00
2019-04-04T05:37:07.312Z,272.00
2019-04-04T05:38:07.601Z,276.00
2019-04-04T05:39:05.319Z,280.00
2019-04-04T05:40:05.348Z,284.00
2019-04-04T05:41:05.380Z,300.00
2019-04-04T05:42:05.398Z,324.00
2019-04-04T05:43:05.480Z,356.00
2019-04-04T05:44:09.001Z,384.00
2019-04-04T05:45:05.479Z,412.00
2019-04-04T05:46:05.511Z,432.00
2019-04-04T05:47:05.531Z,448.00
2019-04-04T05:48:05.557Z,456.00
2019-04-04T05:49:07.777Z,468.00
2019-04-04T05:50:05.636Z,488.00
2019-04-04T05:51:05.639Z,512.00
2019-04-04T05:52:08.741Z,548.00
2019-04-04T05:53:05.708Z,580.00
2019-04-04T05:54:07.656Z,608.00
2019-04-04T05:55:05.754Z,628.00
2019-04-04T05:56:06.400Z,652.00
2019-04-04T05:57:05.799Z,680.00
2019-04-04T05:58:05.825Z,728.00
2019-04-04T05:59:05.854Z,796.00
2019-04-04T06:00:05.898Z,860.00
2019-04-04T06:01:05.930Z,924.00
2019-04-04T06:02:05.933Z,964.00
2019-04-04T06:03:05.960Z,992.00
2019-04-04T06:04:05.984Z,992.00
2019-04-04T06:05:06.058Z,976.00
2019-04-04T06:06:06.070Z,948.00
2019-04-04T06:07:06.064Z,920.00
2019-04-04T06:08:08.162Z,900.00
2019-04-04T06:09:06.117Z,884.00
2019-04-04T06:10:06.144Z,868.00
2019-04-04T06:11:06.171Z,860.00
2019-04-04T06:12:06.209Z,860.00
2019-04-04T06:13:06.237Z,880.00
2019-04-04T06:14:06.252Z,904.00
2019-04-04T06:15:06.277Z,916.00
2019-04-04T06:16:06.303Z,940.00
2019-04-04T06:17:07.216Z,972.00
2019-04-04T06:18:06.368Z,988.00
2019-04-04T06:19:06.396Z,980.00
2019-04-04T06:20:06.414Z,956.00
2019-04-04T06:21:06.437Z,924.00
2019-04-04T06:22:06.463Z,912.00
2019-04-04T06:23:06.491Z,920.00
2019-04-04T06:24:06.522Z,948.00
2019-04-04T06:25:06.614Z,988.00
2019-04-04T06:26:07.660Z,1036.00
2019-04-04T06:27:07.120Z,1068.00
2019-04-04T06:28:06.628Z,1064.00
2019-04-04T06:29:06.651Z,1060.00
2019-04-04T06:30:06.677Z,1056.00
2019-04-04T06:31:06.706Z,1076.00
2019-04-04T06:32:06.730Z,1100.00
2019-04-04T06:33:06.760Z,1128.00
2019-04-04T06:34:10.072Z,1148.00
2019-04-04T06:35:06.811Z,1156.00
2019-04-04T06:36:06.837Z,1144.00
2019-04-04T06:37:06.863Z,1120.00
2019-04-04T06:38:06.891Z,1072.00
2019-04-04T06:39:06.918Z,1028.00
2019-04-04T06:40:06.946Z,984.00
2019-04-04T06:41:06.970Z,952.00
2019-04-04T06:42:06.997Z,928.00
2019-04-04T06:43:10.378Z,916.00
2019-04-04T06:44:07.050Z,904.00
2019-04-04T06:45:07.087Z,896.00
2019-04-04T06:46:07.105Z,900.00
2019-04-04T06:47:07.130Z,916.00
2019-04-04T06:48:07.156Z,932.00
2019-04-04T06:49:07.184Z,940.00
2019-04-04T06:50:08.278Z,952.00
2019-04-04T06:51:07.236Z,980.00
2019-04-04T06:52:09.368Z,1016.00
2019-04-04T06:53:07.290Z,1060.00
2019-04-04T06:54:07.317Z,1104.00
2019-04-04T06:55:07.423Z,1140.00
2019-04-04T06:56:07.369Z,1164.00
2019-04-04T06:57:07.397Z,1184.00
2019-04-04T06:58:09.351Z,1200.00
2019-04-04T06:59:11.122Z,1224.00
2019-04-04T07:00:07.476Z,1260.00
2019-04-04T07:01:07.504Z,1296.00
2019-04-04T07:02:07.532Z,1332.00
2019-04-04T07:03:07.589Z,1380.00
2019-04-04T07:04:07.593Z,1420.00
2019-04-04T07:05:10.401Z,1468.00
2019-04-04T07:06:08.041Z,1516.00
2019-04-04T07:07:07.662Z,1560.00
2019-04-04T07:08:07.688Z,1620.00
2019-04-04T07:09:07.715Z,1720.00
2019-04-04T07:10:07.743Z,1832.00
2019-04-04T07:11:20.536Z,1920.00
2019-04-04T07:12:20.351Z,1976.00
2019-04-04T07:13:21.005Z,2036.00
2019-04-04T07:14:07.847Z,2096.00
2019-04-04T07:15:11.148Z,2136.00
2019-04-04T07:16:08.302Z,2152.00
2019-04-04T07:17:08.795Z,2160.00
2019-04-04T07:18:07.952Z,2164.00
2019-04-04T07:19:08.272Z,2196.00
2019-04-04T07:20:08.005Z,2256.00
2019-04-04T07:21:08.031Z,2340.00
2019-04-04T07:22:08.059Z,2420.00
2019-04-04T07:23:08.086Z,2472.00
2019-04-04T07:24:08.110Z,2500.00
2019-04-04T07:25:08.140Z,2548.00
2019-04-04T07:26:10.967Z,2620.00
2019-04-04T07:27:08.190Z,2708.00
2019-04-04T07:28:08.216Z,2760.00
2019-04-04T07:29:08.243Z,2756.00
2019-04-04T07:30:08.269Z,2748.00
2019-04-04T07:31:08.297Z,2736.00
2019-04-04T07:32:09.399Z,2744.00
2019-04-04T07:33:10.037Z,2884.00
2019-04-04T07:34:08.375Z,3288.00
2019-04-04T07:35:08.469Z,3876.00
2019-04-04T07:36:08.431Z,4528.00
2019-04-04T07:37:08.455Z,5204.00
2019-04-04T07:38:08.481Z,5636.00
2019-04-04T07:39:08.508Z,5624.00
2019-04-04T07:40:08.533Z,5076.00
2019-04-04T07:41:09.129Z,4712.00
2019-04-04T07:42:08.587Z,4608.00
2019-04-04T07:43:08.854Z,4656.00
2019-04-04T07:44:08.639Z,4808.00
2019-04-04T07:45:08.665Z,4968.00
2019-04-04T07:46:16.114Z,5100.00
2019-04-04T07:47:08.718Z,5276.00
2019-04-04T07:48:08.744Z,5472.00
2019-04-04T07:49:08.771Z,5612.00
2019-04-04T07:50:08.797Z,5656.00
2019-04-04T07:51:08.824Z,5600.00
2019-04-04T07:52:08.850Z,5524.00
2019-04-04T07:53:08.876Z,5472.00
2019-04-04T07:54:08.932Z,5432.00
2019-04-04T07:55:10.879Z,5340.00
2019-04-04T07:56:08.956Z,5200.00
2019-04-04T07:57:08.982Z,5044.00
2019-04-04T07:58:09.010Z,4880.00
2019-04-04T07:59:09.037Z,4772.00
2019-04-04T08:00:09.070Z,4716.00
2019-04-04T08:01:09.090Z,4676.00
2019-04-04T08:02:09.116Z,4612.00
2019-04-04T08:03:09.143Z,4552.00
2019-04-04T08:04:09.170Z,4528.00
2019-04-04T08:05:09.197Z,4572.00
2019-04-04T08:06:09.223Z,4624.00
2019-04-04T08:07:09.249Z,4616.00
2019-04-04T08:08:09.275Z,4552.00
2019-04-04T08:09:09.303Z,4520.00
2019-04-04T08:10:19.999Z,4528.00
2019-04-04T08:11:09.357Z,4516.00
2019-04-04T08:12:09.382Z,4452.00
2019-04-04T08:13:09.414Z,4284.00
2019-04-04T08:14:09.437Z,4092.00
2019-04-04T08:15:09.462Z,3944.00
2019-04-04T08:16:09.487Z,3824.00
2019-04-04T08:17:09.516Z,3724.00
2019-04-04T08:18:09.544Z,3668.00
2019-04-04T08:19:09.569Z,3672.00
2019-04-04T08:20:09.596Z,3712.00
2019-04-04T08:21:09.622Z,3804.00
2019-04-04T08:22:09.723Z,4040.00
2019-04-04T08:23:09.676Z,4500.00
2019-04-04T08:24:09.702Z,5116.00
2019-04-04T08:25:09.730Z,5756.00
2019-04-04T08:26:10.173Z,6336.00
2019-04-04T08:27:09.783Z,6860.00
2019-04-04T08:28:09.811Z,7288.00
2019-04-04T08:29:09.836Z,7520.00
2019-04-04T08:30:09.863Z,7464.00
2019-04-04T08:31:10.040Z,7096.00
2019-04-04T08:32:09.918Z,6656.00
2019-04-04T08:33:09.948Z,6576.00
2019-04-04T08:34:09.971Z,6992.00
2019-04-04T08:35:09.999Z,7304.00
2019-04-04T08:36:10.025Z,7224.00
2019-04-04T08:37:10.055Z,7268.00
2019-04-04T08:38:10.078Z,7548.00
2019-04-04T08:39:10.110Z,7460.00
2019-04-04T08:40:10.133Z,6996.00
2019-04-04T08:41:10.160Z,6740.00
2019-04-04T08:42:10.187Z,6720.00
2019-04-04T08:43:10.217Z,6712.00
2019-04-04T08:44:10.241Z,6440.00
2019-04-04T08:45:10.270Z,5796.00
2019-04-04T08:46:10.296Z,5192.00
2019-04-04T08:47:10.323Z,4936.00
2019-04-04T08:48:10.351Z,5032.00
2019-04-04T08:49:10.377Z,5240.00
2019-04-04T08:50:10.409Z,5512.00
2019-04-04T08:51:10.433Z,5968.00
2019-04-04T08:52:16.425Z,6776.00
2019-04-04T08:53:10.491Z,7696.00
2019-04-04T08:54:10.514Z,7812.00
2019-04-04T08:55:10.542Z,6952.00
2019-04-04T08:56:10.569Z,5792.00
2019-04-04T08:57:10.596Z,4952.00
2019-04-04T08:58:10.625Z,4428.00
2019-04-04T08:59:10.653Z,4108.00
2019-04-04T09:00:10.677Z,3908.00
2019-04-04T09:01:10.709Z,3828.00
2019-04-04T09:02:10.736Z,3820.00
2019-04-04T09:03:10.764Z,3736.00
2019-04-04T09:04:10.788Z,3588.00
2019-04-04T09:05:12.041Z,3368.00
2019-04-04T09:06:10.844Z,3116.00
2019-04-04T09:07:10.871Z,2956.00
2019-04-04T09:08:10.896Z,3080.00
2019-04-04T09:09:10.925Z,3544.00
2019-04-04T09:10:10.952Z,3732.00
2019-04-04T09:11:10.980Z,3300.00
2019-04-04T09:12:11.009Z,2972.00
2019-04-04T09:13:11.035Z,3084.00
2019-04-04T09:14:11.061Z,3252.00
2019-04-04T09:15:11.089Z,3236.00
2019-04-04T09:16:11.116Z,3100.00
2019-04-04T09:17:11.142Z,2980.00
2019-04-04T09:18:11.169Z,2824.00
2019-04-04T09:19:11.198Z,2600.00
2019-04-04T09:20:11.224Z,2460.00
2019-04-04T09:21:11.252Z,2528.00
2019-04-04T09:22:11.702Z,2696.00
2019-04-04T09:23:11.311Z,2900.00
2019-04-04T09:24:11.333Z,3200.00
2019-04-04T09:25:11.359Z,3432.00
2019-04-04T09:26:11.390Z,3488.00
2019-04-04T09:27:11.415Z,3648.00
2019-04-04T09:28:11.443Z,3792.00
2019-04-04T09:29:11.472Z,4064.00
2019-04-04T09:30:11.499Z,4432.00
2019-04-04T09:31:11.523Z,4580.00
2019-04-04T09:32:11.548Z,4380.00
2019-04-04T09:33:11.574Z,4020.00
2019-04-04T09:34:11.603Z,3948.00
2019-04-04T09:35:11.638Z,4184.00
2019-04-04T09:36:11.655Z,4340.00
2019-04-04T09:37:11.686Z,4308.00
2019-04-04T09:38:11.709Z,4336.00
2019-04-04T09:39:11.737Z,4380.00
2019-04-04T09:40:11.762Z,4596.00
2019-04-04T09:41:11.789Z,5176.00
2019-04-04T09:42:12.132Z,5600.00
2019-04-04T09:43:11.844Z,5300.00
2019-04-04T09:44:11.870Z,4668.00
2019-04-04T09:45:11.897Z,4200.00
2019-04-04T09:46:11.923Z,4056.00
2019-04-04T09:47:11.954Z,4180.00
2019-04-04T09:48:11.978Z,4360.00
2019-04-04T09:49:13.067Z,4432.00
2019-04-04T09:50:12.034Z,4500.00
2019-04-04T09:51:12.062Z,4556.00
2019-04-04T09:52:12.086Z,4552.00
2019-04-04T09:53:12.112Z,4544.00
2019-04-04T09:54:12.141Z,4432.00
2019-04-04T09:55:12.188Z,4372.00
2019-04-04T09:56:12.194Z,4468.00
2019-04-04T09:57:12.222Z,4696.00
2019-04-04T09:58:12.248Z,4940.00
2019-04-04T09:59:12.281Z,5192.00
2019-04-04T10:00:12.304Z,5512.00
2019-04-04T10:01:12.330Z,5828.00
2019-04-04T10:02:12.359Z,6052.00
2019-04-04T10:03:12.385Z,6224.00
2019-04-04T10:04:12.411Z,6388.00
2019-04-04T10:05:12.442Z,6428.00
2019-04-04T10:06:12.466Z,6384.00
2019-04-04T10:07:12.495Z,6516.00
2019-04-04T10:08:12.521Z,6740.00
2019-04-04T10:09:15.988Z,6724.00
2019-04-04T10:10:12.575Z,6468.00
2019-04-04T10:11:12.601Z,6588.00
2019-04-04T10:12:12.628Z,6956.00
2019-04-04T10:13:12.657Z,6992.00
2019-04-04T10:14:12.682Z,6920.00
2019-04-04T10:15:12.715Z,7276.00
2019-04-04T10:16:12.737Z,7732.00
2019-04-04T10:17:12.768Z,7788.00
2019-04-04T10:18:12.793Z,7772.00
2019-04-04T10:19:12.820Z,8104.00
2019-04-04T10:20:12.847Z,8156.00
2019-04-04T10:21:12.932Z,7720.00
2019-04-04T10:22:12.910Z,7400.00
2019-04-04T10:23:13.254Z,7660.00
2019-04-04T10:24:12.957Z,7580.00
2019-04-04T10:25:12.984Z,7444.00
2019-04-04T10:26:13.063Z,8048.00
2019-04-04T10:27:13.040Z,8800.00
2019-04-04T10:28:13.070Z,8952.00
2019-04-04T10:29:13.095Z,8912.00
2019-04-04T10:30:13.121Z,9524.00
2019-04-04T10:31:13.151Z,10356.00
2019-04-04T10:32:13.179Z,10684.00
2019-04-04T10:33:13.204Z,10760.00
2019-04-04T10:34:13.235Z,10864.00
2019-04-04T10:35:13.261Z,11252.00
2019-04-04T10:36:13.287Z,11640.00
2019-04-04T10:37:13.319Z,11484.00
2019-04-04T10:38:13.344Z,10964.00
2019-04-04T10:39:13.372Z,10944.00
2019-04-04T10:40:13.400Z,11140.00
2019-04-04T10:41:13.756Z,11280.00
2019-04-04T10:42:13.479Z,11668.00
2019-04-04T10:43:13.483Z,11320.00
2019-04-04T10:44:13.509Z,10684.00
2019-04-04T10:45:13.550Z,10512.00
2019-04-04T10:46:13.566Z,10260.00
2019-04-04T10:47:13.595Z,9540.00
2019-04-04T10:48:13.622Z,9108.00
2019-04-04T10:49:13.651Z,8692.00
2019-04-04T10:50:13.680Z,8424.00
2019-04-04T10:51:13.708Z,8352.00
2019-04-04T10:52:13.733Z,8312.00
2019-04-04T10:53:13.769Z,8592.00
2019-04-04T10:54:13.798Z,9328.00
2019-04-04T10:55:13.821Z,10008.00
2019-04-04T10:56:13.847Z,10140.00
2019-04-04T10:57:13.876Z,9560.00
2019-04-04T10:58:13.905Z,8712.00
2019-04-04T10:59:13.931Z,8068.00
2019-04-04T11:00:13.963Z,7992.00
2019-04-04T11:01:13.990Z,7948.00
2019-04-04T11:02:14.019Z,7300.00
2019-04-04T11:03:14.047Z,6408.00
2019-04-04T11:04:14.073Z,5788.00
2019-04-04T11:05:14.102Z,5464.00
2019-04-04T11:06:14.132Z,5164.00
2019-04-04T11:07:14.159Z,4808.00
2019-04-04T11:08:14.186Z,4540.00
2019-04-04T11:09:14.214Z,4308.00
2019-04-04T11:10:14.242Z,4100.00
2019-04-04T11:11:14.273Z,4040.00
2019-04-04T11:12:14.299Z,4024.00
2019-04-04T11:13:14.326Z,4264.00
2019-04-04T11:14:14.355Z,4488.00
2019-04-04T11:15:14.383Z,4408.00
2019-04-04T11:16:14.409Z,4276.00
2019-04-04T11:17:14.438Z,4076.00
2019-04-04T11:18:14.467Z,3700.00
2019-04-04T11:19:14.494Z,3372.00
2019-04-04T11:20:14.522Z,3508.00
2019-04-04T11:21:14.550Z,3552.00
2019-04-04T11:22:14.577Z,3532.00
2019-04-04T11:23:14.605Z,3380.00
2019-04-04T11:24:14.632Z,3172.00
2019-04-04T11:25:14.660Z,3080.00
2019-04-04T11:26:14.689Z,3028.00
2019-04-04T11:27:17.404Z,2884.00
2019-04-04T11:28:14.742Z,2864.00
2019-04-04T11:29:14.771Z,2932.00
2019-04-04T11:30:14.798Z,2936.00
2019-04-04T11:31:14.826Z,2964.00
2019-04-04T11:32:14.855Z,3084.00
2019-04-04T11:33:14.880Z,3264.00
2019-04-04T11:34:14.908Z,3472.00
2019-04-04T11:35:14.935Z,3388.00
2019-04-04T11:36:14.961Z,3244.00
2019-04-04T11:37:14.988Z,3176.00
2019-04-04T11:38:15.018Z,3112.00
2019-04-04T11:39:15.048Z,3224.00
2019-04-04T11:40:15.072Z,3344.00
2019-04-04T11:41:15.099Z,3364.00
2019-04-04T11:42:15.130Z,3296.00
2019-04-04T11:43:15.153Z,3400.00
2019-04-04T11:44:15.181Z,3548.00
2019-04-04T11:45:15.211Z,3708.00
2019-04-04T11:46:15.237Z,3776.00
2019-04-04T11:47:15.263Z,3764.00
2019-04-04T11:48:15.289Z,3760.00
2019-04-04T11:49:15.321Z,3720.00
2019-04-04T11:50:15.345Z,3556.00
2019-04-04T11:51:15.374Z,3452.00
2019-04-04T11:52:15.400Z,3456.00
2019-04-04T11:53:15.426Z,3568.00
2019-04-04T11:54:15.454Z,3584.00
2019-04-04T11:55:15.481Z,3660.00
2019-04-04T11:56:15.508Z,3672.00
2019-04-04T11:57:15.535Z,3692.00
2019-04-04T11:58:15.561Z,3752.00
2019-04-04T11:59:15.589Z,3896.00
2019-04-04T12:00:15.615Z,4052.00
2019-04-04T12:01:15.644Z,4060.00
2019-04-04T12:02:15.670Z,4084.00
2019-04-04T12:03:15.700Z,4196.00
2019-04-04T12:04:15.723Z,4192.00
2019-04-04T12:05:15.751Z,4304.00
2019-04-04T12:06:15.779Z,4264.00
2019-04-04T12:07:15.806Z,4244.00
2019-04-04T12:08:15.833Z,4232.00
2019-04-04T12:09:15.860Z,4292.00
2019-04-04T12:10:15.887Z,4272.00
2019-04-04T12:11:15.915Z,4388.00
2019-04-04T12:12:15.942Z,4524.00
2019-04-04T12:13:15.969Z,4780.00
2019-04-04T12:14:15.997Z,5004.00
2019-04-04T12:15:16.023Z,5244.00
2019-04-04T12:16:16.053Z,5444.00
2019-04-04T12:17:16.080Z,5580.00
2019-04-04T12:18:16.107Z,5656.00
2019-04-04T12:19:16.132Z,5700.00
2019-04-04T12:20:16.162Z,5820.00
2019-04-04T12:21:16.188Z,5960.00
2019-04-04T12:22:16.217Z,6152.00
2019-04-04T12:23:16.241Z,6336.00
2019-04-04T12:24:16.268Z,6524.00
2019-04-04T12:25:16.295Z,6640.00
2019-04-04T12:26:16.326Z,6692.00
2019-04-04T12:27:16.350Z,7040.00
2019-04-04T12:28:16.376Z,7552.00
2019-04-04T12:29:16.407Z,7904.00
2019-04-04T12:30:16.431Z,8184.00
2019-04-04T12:31:16.458Z,8532.00
2019-04-04T12:32:16.484Z,8804.00
2019-04-04T12:33:16.512Z,8804.00
2019-04-04T12:34:16.541Z,8652.00
2019-04-04T12:35:16.568Z,8600.00
2019-04-04T12:36:24.460Z,8536.00
2019-04-04T12:37:16.623Z,8636.00